createdAt,value
2023-01-29T00:01:23.770Z,-0.80
2023-01-29T00:04:03.324Z,-0.80
2023-01-29T00:06:39.141Z,-0.90
2023-01-29T00:09:14.560Z,-0.80
2023-01-29T00:11:55.437Z,-0.90
2023-01-29T00:14:32.858Z,-0.90
2023-01-29T00:17:10.784Z,-0.80
2023-01-29T00:19:48.983Z,-0.90
2023-01-29T00:22:23.787Z,-0.90
2023-01-29T00:25:01.472Z,-0.90
2023-01-29T00:27:41.276Z,-0.90
2023-01-29T00:30:22.386Z,-0.90
2023-01-29T00:33:05.610Z,-0.90
2023-01-29T00:35:48.929Z,-1.00
2023-01-29T00:41:34.525Z,-1.00
2023-01-29T00:44:23.285Z,-0.90
2023-01-29T00:47:05.743Z,-0.90
2023-01-29T00:49:45.838Z,-0.90
2023-01-29T00:52:28.899Z,-0.90
2023-01-29T00:55:08.596Z,-0.90
2023-01-29T00:57:44.459Z,-0.90
2023-01-29T01:00:22.290Z,-1.00
2023-01-29T01:03:08.358Z,-1.00
2023-01-29T01:05:45.740Z,-0.90
2023-01-29T01:08:34.043Z,-1.00
2023-01-29T01:11:11.831Z,-0.90
2023-01-29T01:13:45.519Z,-1.00
2023-01-29T01:16:35.840Z,-1.00
2023-01-29T01:19:28.236Z,-1.00
2023-01-29T01:22:07.058Z,-1.00
2023-01-29T01:24:45.155Z,-1.00
2023-01-29T01:27:23.019Z,-1.10
2023-01-29T01:30:01.360Z,-1.10
2023-01-29T01:32:37.248Z,-1.10
2023-01-29T01:35:15.429Z,-1.10
2023-01-29T01:37:55.616Z,-1.10
2023-01-29T01:40:31.368Z,-1.10
2023-01-29T01:43:07.151Z,-1.10
2023-01-29T01:45:44.292Z,-1.10
2023-01-29T01:48:20.944Z,-1.00
2023-01-29T01:51:00.968Z,-1.10
2023-01-29T01:53:41.756Z,-1.10
2023-01-29T01:56:20.538Z,-1.00
2023-01-29T01:58:58.495Z,-1.10
2023-01-29T02:01:33.438Z,-1.00
2023-01-29T02:04:23.222Z,-1.00
2023-01-29T02:07:10.752Z,-1.00
2023-01-29T02:09:53.762Z,-1.00
2023-01-29T02:12:31.476Z,-1.00
2023-01-29T02:15:10.589Z,-1.00
2023-01-29T02:17:48.575Z,-0.90
2023-01-29T02:20:27.076Z,-0.90
2023-01-29T02:23:39.388Z,-0.90
2023-01-29T02:26:28.102Z,-0.90
2023-01-29T02:29:29.692Z,-0.90
2023-01-29T02:32:12.403Z,-0.90
2023-01-29T02:34:59.667Z,-0.90
2023-01-29T02:37:37.562Z,-0.90
2023-01-29T02:40:20.910Z,-0.90
2023-01-29T02:42:56.718Z,-0.90
2023-01-29T02:45:36.487Z,-0.90
2023-01-29T02:48:17.123Z,-0.90
2023-01-29T02:50:56.866Z,-0.90
2023-01-29T02:53:33.216Z,-0.90
2023-01-29T02:56:13.915Z,-0.90
2023-01-29T02:58:53.319Z,-0.90
2023-01-29T03:01:28.439Z,-0.90
2023-01-29T03:04:11.630Z,-0.90
2023-01-29T03:06:49.033Z,-0.90
2023-01-29T03:09:28.076Z,-0.90
2023-01-29T03:12:02.388Z,-0.90
2023-01-29T03:15:05.449Z,-0.90
2023-01-29T03:17:42.602Z,-0.90
2023-01-29T03:20:25.672Z,-0.80
2023-01-29T03:23:02.019Z,-0.90
2023-01-29T03:25:56.011Z,-0.90
2023-01-29T03:28:45.121Z,-0.90
2023-01-29T03:31:32.607Z,-0.90
2023-01-29T03:34:18.907Z,-0.90
2023-01-29T03:36:57.679Z,-0.90
2023-01-29T03:39:33.331Z,-0.90
2023-01-29T03:42:16.027Z,-0.90
2023-01-29T03:44:56.968Z,-0.90
2023-01-29T03:47:47.181Z,-0.80
2023-01-29T03:50:31.101Z,-0.80
2023-01-29T03:53:12.899Z,-0.90
2023-01-29T03:55:55.758Z,-0.80
2023-01-29T03:58:39.272Z,-0.90
2023-01-29T04:01:18.217Z,-0.80
2023-01-29T04:03:58.708Z,-0.90
2023-01-29T04:06:33.587Z,-0.80
2023-01-29T04:09:21.853Z,-0.80
2023-01-29T04:12:00.001Z,-0.80
2023-01-29T04:14:35.103Z,-0.80
2023-01-29T04:17:13.017Z,-0.80
2023-01-29T04:20:03.475Z,-0.80
2023-01-29T04:22:42.024Z,-0.80
2023-01-29T04:25:26.907Z,-0.80
2023-01-29T04:28:06.214Z,-0.80
2023-01-29T04:30:46.641Z,-0.80
2023-01-29T04:33:26.600Z,-0.80
2023-01-29T04:36:20.273Z,-0.80
2023-01-29T04:39:04.008Z,-0.80
2023-01-29T04:41:46.158Z,-0.90
2023-01-29T04:44:24.988Z,-0.80
2023-01-29T04:46:58.581Z,-0.90
2023-01-29T04:49:38.229Z,-0.80
2023-01-29T04:52:18.706Z,-0.90
2023-01-29T04:54:58.726Z,-0.90
2023-01-29T04:57:36.327Z,-0.90
2023-01-29T05:00:20.342Z,-0.90
2023-01-29T05:02:56.978Z,-0.90
2023-01-29T05:05:33.590Z,-0.90
2023-01-29T05:08:08.914Z,-0.90
2023-01-29T05:10:46.702Z,-0.90
2023-01-29T05:13:20.929Z,-0.90
2023-01-29T05:16:00.360Z,-0.90
2023-01-29T05:18:36.631Z,-0.90
2023-01-29T05:21:13.765Z,-0.90
2023-01-29T05:23:55.242Z,-0.90
2023-01-29T05:26:42.743Z,-0.90
2023-01-29T05:29:22.395Z,-0.90
2023-01-29T05:32:01.968Z,-0.90
2023-01-29T05:34:37.856Z,-0.90
2023-01-29T05:37:13.739Z,-0.90
2023-01-29T05:39:54.551Z,-1.00
2023-01-29T05:42:32.564Z,-0.90
2023-01-29T05:45:08.294Z,-0.90
2023-01-29T05:47:47.641Z,-0.90
2023-01-29T05:50:25.152Z,-0.90
2023-01-29T05:53:04.284Z,-0.90
2023-01-29T05:55:41.281Z,-0.90
2023-01-29T05:58:15.470Z,-0.90
2023-01-29T06:00:51.392Z,-0.90
2023-01-29T06:03:32.432Z,-0.90
2023-01-29T06:06:09.879Z,-1.00
2023-01-29T06:08:50.327Z,-1.00
2023-01-29T06:11:27.158Z,-1.00
2023-01-29T06:14:05.473Z,-1.00
2023-01-29T06:16:41.479Z,-1.00
2023-01-29T06:19:22.592Z,-1.00
2023-01-29T06:21:58.738Z,-1.00
2023-01-29T06:24:36.265Z,-1.00
2023-01-29T06:27:13.687Z,-1.10
2023-01-29T06:29:51.169Z,-1.00
2023-01-29T06:32:29.702Z,-1.10
2023-01-29T06:35:18.450Z,-1.10
2023-01-29T06:37:54.397Z,-1.10
2023-01-29T06:40:34.214Z,-1.10
2023-01-29T06:43:09.658Z,-1.20
2023-01-29T06:45:51.381Z,-1.20
2023-01-29T06:48:29.451Z,-1.20
2023-01-29T06:51:03.794Z,-1.20
2023-01-29T06:53:45.976Z,-1.20
2023-01-29T06:56:23.157Z,-1.20
2023-01-29T06:58:58.829Z,-1.20
2023-01-29T07:01:36.911Z,-1.20
2023-01-29T07:04:11.264Z,-1.20
2023-01-29T07:06:50.449Z,-1.20
2023-01-29T07:09:25.356Z,-1.20
2023-01-29T07:12:03.815Z,-1.20
2023-01-29T07:14:40.643Z,-1.20
2023-01-29T07:17:17.770Z,-1.20
2023-01-29T07:19:48.385Z,-1.20
2023-01-29T07:22:24.032Z,-1.10
2023-01-29T07:25:01.362Z,-1.10
2023-01-29T07:27:41.448Z,-1.10
2023-01-29T07:30:21.648Z,-1.10
2023-01-29T07:32:57.187Z,-1.10
2023-01-29T07:35:35.680Z,-1.10
2023-01-29T07:38:15.109Z,-1.10
2023-01-29T07:40:52.377Z,-1.00
2023-01-29T07:43:32.421Z,-0.90
2023-01-29T07:46:12.481Z,-0.80
2023-01-29T07:48:53.947Z,-0.90
2023-01-29T07:51:33.363Z,-0.90
2023-01-29T07:54:11.099Z,-0.90
2023-01-29T07:56:48.826Z,-0.90
2023-01-29T07:59:22.836Z,-0.80
2023-01-29T08:02:04.375Z,-0.80
2023-01-29T08:04:56.565Z,-0.80
2023-01-29T08:07:33.362Z,-0.70
2023-01-29T08:10:11.820Z,-0.70
2023-01-29T08:12:56.836Z,-0.70
2023-01-29T08:15:39.388Z,-0.60
2023-01-29T08:18:20.471Z,-0.60
2023-01-29T08:21:02.916Z,-0.60
2023-01-29T08:23:42.690Z,-0.60
2023-01-29T08:31:59.781Z,-0.50
2023-01-29T08:34:40.801Z,-0.50
2023-01-29T08:37:30.706Z,-0.40
2023-01-29T08:40:26.753Z,-0.30
2023-01-29T08:53:19.324Z,-0.10
2023-01-29T08:56:07.814Z,0.00
2023-01-29T08:58:48.417Z,0.10
2023-01-29T09:01:28.828Z,0.20
2023-01-29T09:04:02.554Z,0.20
2023-01-29T09:06:43.401Z,0.20
2023-01-29T09:09:23.617Z,0.20
2023-01-29T09:12:11.285Z,0.30
2023-01-29T09:14:46.221Z,0.40
2023-01-29T09:20:36.680Z,0.50
2023-01-29T09:23:25.376Z,0.60
2023-01-29T09:29:47.051Z,0.70
2023-01-29T09:32:52.752Z,0.60
2023-01-29T09:57:36.346Z,1.50
2023-01-29T10:03:53.135Z,1.80
2023-01-29T10:06:34.446Z,2.00
2023-01-29T10:09:41.413Z,2.20
2023-01-29T10:12:30.198Z,2.40
2023-01-29T10:15:25.429Z,2.40
2023-01-29T10:18:40.759Z,2.40
2023-01-29T10:21:41.678Z,2.30
2023-01-29T10:24:31.035Z,2.30
2023-01-29T10:27:35.634Z,2.30
2023-01-29T10:49:01.859Z,2.20
2023-01-29T11:05:10.961Z,2.10
2023-01-29T11:23:40.183Z,2.10
2023-01-29T11:39:08.811Z,2.10
2023-01-29T11:42:27.861Z,2.10
2023-01-29T11:45:27.212Z,2.20
2023-01-29T11:48:25.176Z,2.10
2023-01-29T11:51:06.434Z,2.00
2023-01-29T11:53:46.257Z,2.00
2023-01-29T12:02:52.418Z,2.10
2023-01-29T14:54:22.948Z,2.20
2023-01-29T15:00:08.115Z,2.10
2023-01-29T15:03:02.364Z,2.00
2023-01-29T15:18:50.959Z,1.80
2023-01-29T16:24:30.009Z,1.50
2023-01-29T16:27:30.522Z,1.50
2023-01-29T16:46:04.648Z,1.50
2023-01-29T17:49:41.181Z,1.20
2023-01-29T17:52:28.280Z,1.20
2023-01-29T19:33:24.095Z,1.30
2023-01-29T19:59:27.885Z,1.20
2023-01-29T20:02:19.319Z,1.30
2023-01-29T20:07:59.483Z,1.30
2023-01-29T20:10:38.888Z,1.20
2023-01-29T20:13:23.996Z,1.20
2023-01-29T20:22:37.887Z,1.10
2023-01-29T20:25:43.959Z,1.00
2023-01-29T20:28:27.931Z,1.00
2023-01-29T20:31:26.508Z,1.00
2023-01-29T20:34:31.354Z,1.00
2023-01-29T20:40:06.151Z,0.90
2023-01-29T20:46:00.217Z,0.90
2023-01-29T20:51:58.054Z,0.80
2023-01-29T20:54:40.367Z,0.90
2023-01-29T20:57:15.474Z,0.80
2023-01-29T21:00:08.381Z,0.80
2023-01-29T21:03:10.118Z,0.70
2023-01-29T21:06:03.009Z,0.70
2023-01-29T21:24:56.722Z,0.40
2023-01-29T21:43:22.870Z,0.30
2023-01-29T21:46:30.257Z,0.20
2023-01-29T21:52:43.708Z,0.20
2023-01-29T22:02:13.403Z,0.10
2023-01-29T22:05:18.707Z,0.10
2023-01-29T22:07:58.655Z,0.10
2023-01-29T22:10:46.115Z,0.00
2023-01-29T22:13:27.833Z,0.00
2023-01-29T22:16:20.660Z,0.00
2023-01-29T22:31:05.009Z,-0.10
2023-01-29T22:37:05.465Z,-0.10
2023-01-29T22:39:43.275Z,-0.20
2023-01-29T23:42:35.371Z,0.00
